Terminal Aerodrome Forecast
Issued by NWS

Home | Current Version | Previous Version | Text Only | Print | Product List | Glossary Off
Versions: 1 2 3 4 5 6 7 8 9 10 11 12 13 14 15 16 17 18 19 20 21 22 23 24

000
FTUS43 KIWX 200521
TAFSBN
TAF
KSBN 200521Z 2006/2106 34003KT P6SM SCT020
     FM200800 01005KT P6SM SCT008 BKN015
     FM201100 03005KT P6SM SCT004 OVC008
      TEMPO 2011/2014 4SM BR OVC004
     FM201500 04006KT P6SM SCT015 BKN020
     FM210000 05007KT P6SM VCTS OVC020CB=

USA.gov is the U.S. government's official web portal to all federal, state and local government web resources and services.